createdAt,value
2023-08-04T00:00:19.550Z,22.96
2023-08-04T00:03:07.641Z,22.91
2023-08-04T00:05:36.060Z,22.85
2023-08-04T00:08:04.460Z,22.79
2023-08-04T00:10:32.919Z,22.74
2023-08-04T00:13:01.147Z,22.68
2023-08-04T00:15:30.265Z,22.65
2023-08-04T00:17:58.520Z,22.63
2023-08-04T00:20:27.668Z,22.61
2023-08-04T00:22:59.489Z,22.59
2023-08-04T00:25:27.920Z,22.57
2023-08-04T00:27:56.264Z,22.53
2023-08-04T00:30:24.585Z,22.48
2023-08-04T00:32:52.992Z,22.41
2023-08-04T00:35:21.360Z,22.37
2023-08-04T00:37:50.080Z,22.34
2023-08-04T00:40:18.437Z,22.31
2023-08-04T00:42:46.863Z,22.28
2023-08-04T00:45:15.446Z,22.24
2023-08-04T00:47:46.762Z,22.19
2023-08-04T00:50:16.123Z,22.13
2023-08-04T00:52:46.009Z,22.08
2023-08-04T00:55:16.280Z,22.05
2023-08-04T00:57:48.570Z,22.04
2023-08-04T01:00:17.094Z,22.03
2023-08-04T01:02:45.402Z,22.00
2023-08-04T01:05:13.822Z,21.98
2023-08-04T01:07:54.511Z,21.95
2023-08-04T01:10:32.507Z,21.92
2023-08-04T01:13:08.973Z,21.89
2023-08-04T01:15:37.924Z,21.88
2023-08-04T01:18:06.435Z,21.85
2023-08-04T01:20:36.301Z,21.82
2023-08-04T01:23:04.882Z,21.79
2023-08-04T01:25:41.483Z,21.76
2023-08-04T01:28:15.345Z,21.73
2023-08-04T01:30:46.321Z,21.69
2023-08-04T01:33:16.040Z,21.66
2023-08-04T01:35:47.190Z,21.64
2023-08-04T01:38:18.124Z,21.61
2023-08-04T01:40:47.475Z,21.58
2023-08-04T01:43:15.742Z,21.56
2023-08-04T01:45:44.044Z,21.51
2023-08-04T01:48:12.564Z,21.47
2023-08-04T01:50:41.018Z,21.44
2023-08-04T01:53:09.435Z,21.41
2023-08-04T01:55:37.811Z,21.39
2023-08-04T01:58:06.108Z,21.37
2023-08-04T02:00:34.613Z,21.35
2023-08-04T02:03:03.142Z,21.31
2023-08-04T02:05:31.709Z,21.28
2023-08-04T02:08:00.041Z,21.24
2023-08-04T02:10:30.778Z,21.22
2023-08-04T02:12:59.488Z,21.20
2023-08-04T02:15:29.014Z,21.17
2023-08-04T02:17:57.438Z,21.13
2023-08-04T02:20:25.989Z,21.12
2023-08-04T02:22:57.286Z,21.08
2023-08-04T02:25:25.825Z,21.06
2023-08-04T02:27:54.412Z,21.05
2023-08-04T02:30:22.746Z,21.04
2023-08-04T02:32:52.094Z,21.01
2023-08-04T02:35:21.050Z,21.00
2023-08-04T02:37:49.559Z,20.98
2023-08-04T02:40:20.745Z,20.96
2023-08-04T02:42:49.168Z,20.94
2023-08-04T02:45:17.555Z,20.92
2023-08-04T02:47:45.818Z,20.91
2023-08-04T02:50:14.337Z,20.91
2023-08-04T02:52:43.114Z,20.89
2023-08-04T02:55:13.527Z,20.87
2023-08-04T02:57:42.146Z,20.86
2023-08-04T03:00:10.802Z,20.86
2023-08-04T03:02:39.967Z,20.86
2023-08-04T03:05:08.865Z,20.88
2023-08-04T03:07:37.161Z,20.89
2023-08-04T03:10:06.385Z,20.88
2023-08-04T03:12:34.571Z,20.87
2023-08-04T03:15:03.710Z,20.85
2023-08-04T03:17:32.251Z,20.86
2023-08-04T03:20:00.808Z,20.87
2023-08-04T03:22:29.412Z,20.89
2023-08-04T03:24:57.588Z,20.93
2023-08-04T03:27:25.849Z,20.95
2023-08-04T03:29:54.770Z,21.00
2023-08-04T03:32:23.887Z,21.05
2023-08-04T03:34:52.435Z,21.08
2023-08-04T03:37:20.704Z,21.12
2023-08-04T03:39:49.044Z,21.18
2023-08-04T03:42:17.442Z,21.24
2023-08-04T03:44:45.859Z,21.29
2023-08-04T03:47:14.639Z,21.35
2023-08-04T03:49:43.091Z,21.40
2023-08-04T03:52:11.574Z,21.45
2023-08-04T03:54:40.346Z,21.50
2023-08-04T03:57:08.779Z,21.55
2023-08-04T03:59:37.184Z,21.60
2023-08-04T04:02:05.699Z,21.67
2023-08-04T04:04:34.432Z,21.73
2023-08-04T04:07:02.917Z,21.78
2023-08-04T04:09:31.061Z,21.85
2023-08-04T04:11:59.614Z,21.91
2023-08-04T04:14:27.962Z,21.96
2023-08-04T04:16:57.847Z,22.02
2023-08-04T04:19:26.147Z,22.10
2023-08-04T04:21:54.561Z,22.16
2023-08-04T04:24:22.941Z,22.22
2023-08-04T04:26:51.400Z,22.27
2023-08-04T04:29:19.631Z,22.35
2023-08-04T04:31:48.285Z,22.43
2023-08-04T04:34:17.105Z,22.51
2023-08-04T04:36:45.436Z,22.62
2023-08-04T04:39:13.942Z,22.76
2023-08-04T04:41:42.248Z,22.90
2023-08-04T04:44:10.491Z,23.00
2023-08-04T04:46:38.716Z,23.08
2023-08-04T04:49:07.137Z,23.15
2023-08-04T04:51:36.051Z,23.25
2023-08-04T04:54:04.597Z,23.31
2023-08-04T04:56:33.668Z,23.38
2023-08-04T04:59:02.110Z,23.45
2023-08-04T05:01:30.676Z,23.53
2023-08-04T05:03:59.405Z,23.61
2023-08-04T05:06:30.692Z,23.67
2023-08-04T05:09:00.212Z,23.72
2023-08-04T05:11:29.141Z,23.79
2023-08-04T05:13:58.305Z,23.84
2023-08-04T05:16:26.691Z,23.91
2023-08-04T05:18:55.124Z,24.00
2023-08-04T05:21:24.492Z,24.06
2023-08-04T05:23:53.470Z,24.14
2023-08-04T05:26:21.811Z,24.21
2023-08-04T05:28:50.169Z,24.29
2023-08-04T05:31:18.716Z,24.35
2023-08-04T05:33:47.716Z,24.40
2023-08-04T05:36:16.276Z,24.47
2023-08-04T05:38:45.563Z,24.54
2023-08-04T05:41:13.926Z,24.60
2023-08-04T05:43:43.734Z,24.65
2023-08-04T05:46:16.695Z,24.71
2023-08-04T05:48:45.166Z,24.77
2023-08-04T05:51:13.795Z,24.82
2023-08-04T05:53:43.087Z,24.90
2023-08-04T05:56:11.737Z,25.00
2023-08-04T05:58:43.880Z,25.07
2023-08-04T06:01:13.616Z,25.14
2023-08-04T06:03:42.078Z,25.20
2023-08-04T06:06:10.765Z,25.27
2023-08-04T06:08:39.407Z,25.34
2023-08-04T06:11:07.713Z,25.40
2023-08-04T06:13:36.100Z,25.48
2023-08-04T06:16:04.694Z,25.58
2023-08-04T06:18:33.538Z,25.67
2023-08-04T06:21:01.938Z,25.76
2023-08-04T06:23:30.708Z,25.85
2023-08-04T06:25:59.187Z,25.91
2023-08-04T06:28:27.816Z,25.98
2023-08-04T06:30:57.500Z,26.04
2023-08-04T06:33:25.881Z,26.10
2023-08-04T06:35:54.261Z,26.15
2023-08-04T06:38:22.596Z,26.19
2023-08-04T06:40:51.723Z,26.24
2023-08-04T06:43:20.200Z,26.29
2023-08-04T06:45:49.041Z,26.35
2023-08-04T06:48:17.591Z,26.42
2023-08-04T06:50:47.613Z,26.47
2023-08-04T06:53:16.079Z,26.52
2023-08-04T06:55:47.293Z,26.58
2023-08-04T06:58:16.261Z,26.63
2023-08-04T07:00:46.611Z,26.67
2023-08-04T07:03:16.065Z,26.76
2023-08-04T07:05:44.678Z,26.87
2023-08-04T07:11:52.471Z,27.03
2023-08-04T07:14:20.916Z,27.04
2023-08-04T07:16:49.905Z,27.08
2023-08-04T07:19:18.742Z,27.11
2023-08-04T07:21:47.782Z,27.15
2023-08-04T07:24:16.433Z,27.19
2023-08-04T07:26:45.013Z,27.25
2023-08-04T07:29:13.523Z,27.31
2023-08-04T07:31:42.086Z,27.38
2023-08-04T07:34:10.689Z,27.43
2023-08-04T07:36:39.474Z,27.49
2023-08-04T07:39:08.325Z,27.55
2023-08-04T07:41:36.823Z,27.66
2023-08-04T07:44:05.526Z,27.81
2023-08-04T07:46:33.937Z,27.90
2023-08-04T07:49:02.336Z,27.98
2023-08-04T07:51:30.712Z,28.10
2023-08-04T07:53:59.128Z,28.20
2023-08-04T07:56:35.613Z,28.32
2023-08-04T07:59:04.672Z,28.38
2023-08-04T08:01:33.392Z,28.44
2023-08-04T08:04:02.539Z,28.54
2023-08-04T08:06:31.030Z,28.64
2023-08-04T08:08:59.800Z,28.74
2023-08-04T08:11:28.244Z,28.81
2023-08-04T08:13:56.768Z,28.91
2023-08-04T08:16:25.284Z,28.96
2023-08-04T08:18:54.335Z,29.01
2023-08-04T08:21:23.206Z,29.04
2023-08-04T08:23:52.366Z,29.04
2023-08-04T08:26:21.024Z,29.06
2023-08-04T08:28:50.573Z,29.07
2023-08-04T08:31:19.477Z,29.10
2023-08-04T08:33:49.383Z,29.15
2023-08-04T08:36:20.527Z,29.23
2023-08-04T08:38:49.614Z,29.26
2023-08-04T08:41:22.233Z,29.28
2023-08-04T08:43:51.933Z,29.31
2023-08-04T08:46:20.452Z,29.35
2023-08-04T08:48:51.292Z,29.43
2023-08-04T08:51:24.226Z,29.46
2023-08-04T08:53:54.305Z,29.51
2023-08-04T08:56:23.252Z,29.59
2023-08-04T08:58:51.722Z,29.71
2023-08-04T09:01:20.615Z,29.77
2023-08-04T09:03:49.230Z,29.81
2023-08-04T09:25:54.707Z,30.41
2023-08-04T09:28:23.405Z,30.46
2023-08-04T09:31:11.877Z,30.55
2023-08-04T09:33:43.292Z,30.64
2023-08-04T09:36:19.748Z,30.73
2023-08-04T09:38:48.471Z,30.81
2023-08-04T09:41:17.124Z,30.90
2023-08-04T09:43:45.477Z,31.01
2023-08-04T09:46:15.296Z,31.10
2023-08-04T09:48:44.075Z,31.16
2023-08-04T09:51:14.538Z,31.23
2023-08-04T09:53:44.975Z,31.27
2023-08-04T09:56:15.883Z,31.31
2023-08-04T09:58:45.911Z,31.36
2023-08-04T10:01:15.782Z,31.39
2023-08-04T10:03:47.398Z,31.46
2023-08-04T10:06:17.279Z,31.54
2023-08-04T10:08:45.680Z,31.61
2023-08-04T10:11:13.976Z,31.66
2023-08-04T10:13:47.682Z,31.72
2023-08-04T10:16:19.075Z,31.86
2023-08-04T10:18:50.598Z,32.00
2023-08-04T10:21:21.768Z,32.14
2023-08-04T10:23:54.138Z,32.25
2023-08-04T10:26:22.649Z,32.34
2023-08-04T10:29:07.260Z,32.44
2023-08-04T10:31:56.922Z,32.51
2023-08-04T10:34:32.590Z,32.56
2023-08-04T10:37:13.226Z,32.66
2023-08-04T10:39:46.109Z,32.75
2023-08-04T10:42:15.564Z,32.85
2023-08-04T10:45:06.494Z,32.88
2023-08-04T10:47:51.986Z,32.95
2023-08-04T10:50:28.117Z,33.09
2023-08-04T10:52:56.917Z,33.18
2023-08-04T10:55:27.757Z,33.18
2023-08-04T10:57:56.213Z,33.17
2023-08-04T11:00:24.777Z,33.15
2023-08-04T11:02:53.600Z,33.20
2023-08-04T11:05:25.552Z,33.30
2023-08-04T11:07:54.146Z,33.45
2023-08-04T11:10:24.825Z,33.57
2023-08-04T11:12:54.532Z,33.67
2023-08-04T11:15:22.944Z,33.77
2023-08-04T11:17:51.220Z,33.87
2023-08-04T11:20:32.001Z,33.98
2023-08-04T11:23:02.965Z,34.07
2023-08-04T11:25:37.772Z,34.09
2023-08-04T11:28:08.585Z,34.09
2023-08-04T11:30:37.928Z,34.13
2023-08-04T11:33:09.673Z,34.21
2023-08-04T11:35:38.232Z,34.23
2023-08-04T11:38:06.711Z,34.24
2023-08-04T11:40:36.658Z,34.30
2023-08-04T11:43:05.867Z,34.39
2023-08-04T11:45:34.149Z,34.49
2023-08-04T11:48:02.537Z,34.59
2023-08-04T11:50:31.041Z,34.66
2023-08-04T11:53:01.153Z,34.75
2023-08-04T11:55:29.734Z,34.78
2023-08-04T11:57:58.026Z,34.80
2023-08-04T12:00:34.875Z,34.83
2023-08-04T12:03:05.292Z,34.90
2023-08-04T12:05:38.311Z,34.90
2023-08-04T12:08:15.252Z,34.89
2023-08-04T12:10:45.272Z,34.93
2023-08-04T12:13:47.525Z,35.00
2023-08-04T12:16:21.749Z,35.10
2023-08-04T12:18:52.271Z,35.20
2023-08-04T12:21:24.697Z,35.28
2023-08-04T12:23:54.935Z,35.36
2023-08-04T12:26:23.593Z,35.40
2023-08-04T12:28:52.689Z,35.39
2023-08-04T12:31:21.150Z,35.38
2023-08-04T12:33:49.729Z,35.38
2023-08-04T12:36:18.252Z,35.44
2023-08-04T12:38:47.741Z,35.51
2023-08-04T12:41:16.417Z,35.59
2023-08-04T12:43:47.422Z,35.57
2023-08-04T12:46:16.530Z,35.58
2023-08-04T12:48:45.007Z,35.65
2023-08-04T12:51:14.001Z,35.68
2023-08-04T21:26:09.718Z,26.82
2023-08-04T21:28:38.479Z,26.74
2023-08-04T21:31:05.452Z,26.72
2023-08-04T21:33:32.480Z,26.69
2023-08-04T21:36:05.797Z,26.66
2023-08-04T21:38:32.706Z,26.64
2023-08-04T21:41:05.592Z,26.61
2023-08-04T21:43:35.886Z,26.57
2023-08-04T21:46:10.678Z,26.52
2023-08-04T21:48:38.700Z,26.49
2023-08-04T21:51:15.891Z,26.45
2023-08-04T21:53:43.046Z,26.42
2023-08-04T21:56:09.986Z,26.38
2023-08-04T21:58:37.837Z,26.34
2023-08-04T22:01:09.557Z,26.30
2023-08-04T22:03:37.522Z,26.28
2023-08-04T22:06:04.794Z,26.24
2023-08-04T22:08:31.833Z,26.22
2023-08-04T22:11:05.804Z,26.22
2023-08-04T22:13:32.724Z,26.21
2023-08-04T22:15:59.818Z,26.20
2023-08-04T22:18:26.705Z,26.18
2023-08-04T22:21:04.061Z,26.16
2023-08-04T22:23:32.096Z,26.13
2023-08-04T22:26:02.293Z,26.09
2023-08-04T22:28:29.972Z,26.04
2023-08-04T22:31:00.589Z,26.01
2023-08-04T22:33:30.590Z,25.98
2023-08-04T22:35:57.841Z,25.94
2023-08-04T22:38:24.648Z,25.91
2023-08-04T22:40:51.469Z,25.86
2023-08-04T22:43:18.304Z,25.82
2023-08-04T22:45:46.146Z,25.78
2023-08-04T22:48:13.705Z,25.73
2023-08-04T22:50:40.733Z,25.67
2023-08-04T22:53:07.711Z,25.62
2023-08-04T22:55:38.854Z,25.59
2023-08-04T22:58:05.985Z,25.55
2023-08-04T23:00:33.084Z,25.53
2023-08-04T23:02:59.983Z,25.50
2023-08-04T23:05:33.121Z,25.46
2023-08-04T23:08:00.217Z,25.40
2023-08-04T23:10:27.244Z,25.34
2023-08-04T23:12:54.206Z,25.28
2023-08-04T23:15:21.414Z,25.22
2023-08-04T23:17:48.481Z,25.17
2023-08-04T23:20:15.560Z,25.12
2023-08-04T23:22:44.853Z,25.07
2023-08-04T23:25:11.949Z,25.02
2023-08-04T23:27:38.890Z,24.96
2023-08-04T23:30:06.542Z,24.91
2023-08-04T23:32:34.092Z,24.86
2023-08-04T23:35:01.191Z,24.81
2023-08-04T23:37:28.182Z,24.76
2023-08-04T23:39:55.258Z,24.70
2023-08-04T23:42:22.364Z,24.65
2023-08-04T23:44:49.285Z,24.60
2023-08-04T23:47:17.639Z,24.57
2023-08-04T23:49:44.611Z,24.53
2023-08-04T23:52:11.519Z,24.49
2023-08-04T23:54:38.597Z,24.45
2023-08-04T23:57:05.927Z,24.42
2023-08-04T23:59:32.948Z,24.38
